Time;durP1;ratioP1;P1;durP2;ratioP2;P2;SDS_P1;SDS_P2;PMS_P1;PMS_P2;Temp;Humidity;BMP_temperature;BMP_pressure;BME280_temperature;BME280_humidity;BME280_pressure;Samples;Min_cycle;Max_cycle;Signal;HPM_P1;HPM_P2
2022/02/25 00:00:06;;;;;;;3.87;1.07;;;6.20;99.90;;;;;;5017280;28;20225;-92
2022/02/25 00:02:35;;;;;;;0.30;0.30;;;6.20;99.90;;;;;;4995513;28;20237;-90
2022/02/25 00:05:05;;;;;;;2.97;2.57;;;6.20;99.90;;;;;;5033838;28;20218;-90
2022/02/25 00:07:31;;;;;;;2.37;2.23;;;6.10;99.90;;;;;;5019281;28;20219;-90
2022/02/25 00:09:57;;;;;;;3.50;1.67;;;6.00;99.90;;;;;;5019080;28;21041;-91
2022/02/25 00:12:23;;;;;;;5.40;1.83;;;6.00;99.90;;;;;;5019277;28;20193;-91
2022/02/25 00:14:49;;;;;;;2.93;0.80;;;6.00;99.90;;;;;;5019807;28;20273;-90
2022/02/25 00:17:15;;;;;;;15.23;1.57;;;6.00;99.90;;;;;;5004560;28;20219;-91
2022/02/25 00:19:41;;;;;;;0.93;0.93;;;6.00;99.90;;;;;;5004072;28;20260;-91
2022/02/25 00:22:09;;;;;;;1.63;1.53;;;6.00;99.90;;;;;;5033574;28;20249;-91
2022/02/25 00:24:35;;;;;;;1.63;1.57;;;6.10;99.90;;;;;;5001943;28;20360;-92
2022/02/25 00:27:04;;;;;;;8.00;0.60;;;6.20;99.90;;;;;;4999725;28;20221;-89
2022/02/25 00:29:32;;;;;;;1.03;0.83;;;6.20;99.90;;;;;;5015503;28;20209;-90
2022/02/25 00:31:58;;;;;;;0.97;0.93;;;6.20;99.90;;;;;;5019330;28;20306;-89
2022/02/25 00:34:24;;;;;;;1.10;0.83;;;6.20;99.90;;;;;;5002861;28;20308;-92
2022/02/25 00:36:49;;;;;;;0.40;0.40;;;6.20;99.90;;;;;;4977925;28;20276;-91
2022/02/25 00:39:15;;;;;;;0.30;0.30;;;6.20;99.90;;;;;;5003349;28;20190;-92
2022/02/25 00:41:43;;;;;;;0.50;0.37;;;6.20;99.90;;;;;;5017986;28;20326;-91
2022/02/25 00:44:12;;;;;;;1.73;0.57;;;6.10;99.90;;;;;;5013819;28;21121;-93
2022/02/25 00:46:37;;;;;;;0.70;0.63;;;6.10;99.90;;;;;;5017101;28;20225;-90
2022/02/25 00:49:03;;;;;;;0.40;0.40;;;6.10;99.90;;;;;;5015732;28;20218;-92
2022/02/25 00:51:29;;;;;;;1.37;1.10;;;6.10;99.90;;;;;;5017398;28;20230;-91
2022/02/25 00:53:55;;;;;;;0.37;0.37;;;6.10;99.90;;;;;;5035575;28;20191;-92
2022/02/25 00:56:21;;;;;;;0.57;0.57;;;6.20;99.90;;;;;;5018275;28;20215;-91
2022/02/25 00:58:48;;;;;;;0.30;0.30;;;6.20;99.90;;;;;;5017793;28;20251;-91
2022/02/25 01:01:14;;;;;;;0.27;0.20;;;6.20;99.90;;;;;;5016418;28;20742;-93
2022/02/25 01:03:40;;;;;;;1.60;0.93;;;6.20;99.90;;;;;;5018163;28;20221;-91
2022/02/25 01:06:06;;;;;;;2.03;0.67;;;6.10;99.90;;;;;;5018939;28;20195;-91
2022/02/25 01:08:32;;;;;;;1.37;1.27;;;6.20;99.90;;;;;;5019529;28;20186;-91
2022/02/25 01:10:58;;;;;;;1.53;1.53;;;6.20;99.90;;;;;;5023150;28;20225;-90
2022/02/25 01:13:24;;;;;;;0.97;0.73;;;6.20;99.90;;;;;;4989812;28;20979;-92
2022/02/25 01:15:49;;;;;;;2.57;0.77;;;6.20;99.90;;;;;;5022875;28;20256;-91
2022/02/25 01:18:15;;;;;;;0.40;0.40;;;6.20;99.90;;;;;;5021660;28;20277;-90
2022/02/25 01:20:41;;;;;;;2.97;1.23;;;6.20;99.90;;;;;;5023546;28;20297;-91
2022/02/25 01:23:07;;;;;;;4.13;1.63;;;6.20;99.90;;;;;;5005436;28;20843;-90
2022/02/25 01:25:33;;;;;;;0.40;0.40;;;6.20;99.90;;;;;;5004215;28;20221;-91
2022/02/25 01:27:59;;;;;;;4.77;1.27;;;6.20;99.90;;;;;;5005121;28;20218;-92
2022/02/25 01:30:25;;;;;;;5.10;1.23;;;6.20;99.90;;;;;;5004895;28;20241;-89
2022/02/25 01:32:51;;;;;;;0.33;0.33;;;6.20;99.90;;;;;;5023912;28;20217;-91
2022/02/25 01:35:16;;;;;;;0.60;0.60;;;6.20;99.90;;;;;;5019744;28;20245;-90
2022/02/25 01:37:44;;;;;;;20.13;2.30;;;6.10;99.90;;;;;;5006088;28;20281;-89
2022/02/25 01:40:09;;;;;;;0.90;0.70;;;6.00;99.90;;;;;;4976864;28;20238;-89
2022/02/25 01:42:52;;;;;;;1.17;0.97;;;5.90;99.90;;;;;;4972750;28;20325;-89
2022/02/25 01:45:19;;;;;;;0.57;0.57;;;5.80;99.90;;;;;;5004595;28;20191;-92
2022/02/25 01:47:46;;;;;;;8.20;1.37;;;5.80;99.90;;;;;;5006680;28;20186;-89
2022/02/25 01:50:12;;;;;;;1.27;1.17;;;5.70;99.90;;;;;;5004862;28;20214;-89
2022/02/25 01:52:58;;;;;;;1.17;0.87;;;5.60;99.90;;;;;;5004135;28;20233;-91
2022/02/25 01:55:24;;;;;;;1.33;0.90;;;5.60;99.90;;;;;;5017326;28;20215;-90
2022/02/25 01:57:50;;;;;;;0.87;0.87;;;5.60;99.90;;;;;;4990067;28;20225;-90
2022/02/25 02:00:16;;;;;;;1.50;1.30;;;5.60;99.90;;;;;;5038167;28;20216;-91
2022/02/25 02:02:43;;;;;;;2.00;0.77;;;5.50;99.90;;;;;;5022227;28;20270;-89
2022/02/25 02:05:08;;;;;;;5.97;1.60;;;5.50;99.90;;;;;;5023137;28;20225;-89
2022/02/25 02:07:34;;;;;;;0.63;0.60;;;5.50;99.90;;;;;;5007152;28;20230;-90
2022/02/25 02:10:00;;;;;;;8.33;1.30;;;5.50;99.90;;;;;;5021764;28;20675;-90
2022/02/25 02:12:26;;;;;;;2.43;2.23;;;5.50;99.90;;;;;;4989133;28;20292;-87
2022/02/25 02:14:52;;;;;;;1.63;1.53;;;5.60;99.90;;;;;;4981348;28;20201;-87
2022/02/25 02:17:17;;;;;;;1.43;1.23;;;5.60;99.90;;;;;;4979207;28;20219;-88
2022/02/25 02:19:43;;;;;;;0.60;0.60;;;5.50;99.90;;;;;;5004611;28;20221;-88
2022/02/25 02:22:10;;;;;;;1.00;1.00;;;5.50;99.90;;;;;;4972363;28;20230;-88
2022/02/25 02:24:36;;;;;;;1.23;1.13;;;5.50;99.90;;;;;;5002225;28;20554;-89
2022/02/25 02:27:01;;;;;;;0.83;0.83;;;5.50;99.90;;;;;;5006704;28;20651;-88
2022/02/25 02:29:27;;;;;;;8.93;0.93;;;5.50;99.90;;;;;;5003558;28;20244;-88
2022/02/25 02:31:53;;;;;;;0.30;0.30;;;5.50;99.90;;;;;;5021278;28;20251;-87
2022/02/25 02:34:19;;;;;;;6.60;1.03;;;5.50;99.90;;;;;;5031093;28;20233;-87
2022/02/25 02:36:47;;;;;;;34.80;1.73;;;5.50;99.90;;;;;;5020322;28;20226;-88
2022/02/25 02:39:13;;;;;;;0.83;0.83;;;5.50;99.90;;;;;;5020421;28;20186;-88
2022/02/25 02:41:39;;;;;;;1.87;1.77;;;5.60;99.90;;;;;;5036140;28;20263;-87
2022/02/25 02:44:06;;;;;;;1.60;0.70;;;5.60;99.90;;;;;;5020516;28;20233;-88
2022/02/25 02:46:32;;;;;;;1.90;1.10;;;5.60;99.90;;;;;;5038180;28;20254;-87
2022/02/25 02:48:58;;;;;;;0.50;0.50;;;5.60;99.90;;;;;;5002968;28;20222;-87
2022/02/25 02:51:24;;;;;;;0.50;0.50;;;5.60;99.90;;;;;;5019458;28;20230;-86
2022/02/25 02:53:50;;;;;;;0.93;0.93;;;5.50;99.90;;;;;;5003759;28;20217;-87
2022/02/25 02:56:15;;;;;;;1.90;1.80;;;5.50;99.90;;;;;;4989163;28;20325;-87
2022/02/25 02:58:41;;;;;;;1.90;1.37;;;5.50;99.90;;;;;;5004782;28;20229;-88
2022/02/25 03:01:07;;;;;;;1.00;0.97;;;5.50;99.90;;;;;;5021942;28;20654;-88
2022/02/25 03:03:33;;;;;;;2.10;1.30;;;5.40;99.90;;;;;;5003412;28;20218;-87
2022/02/25 03:05:58;;;;;;;5.47;1.07;;;5.50;99.90;;;;;;5003763;28;20278;-87
2022/02/25 03:08:24;;;;;;;0.30;0.30;;;5.50;99.90;;;;;;5018682;28;20218;-87
2022/02/25 03:10:51;;;;;;;0.27;0.27;;;5.50;99.90;;;;;;5004478;28;20218;-88
2022/02/25 03:13:17;;;;;;;1.90;1.53;;;5.50;99.90;;;;;;5003299;28;20222;-88
2022/02/25 03:15:44;;;;;;;1.33;0.80;;;5.50;99.90;;;;;;5020194;28;20917;-89
2022/02/25 03:18:10;;;;;;;2.57;0.97;;;5.50;99.90;;;;;;5011896;28;20621;-89
2022/02/25 03:20:36;;;;;;;0.97;0.60;;;5.50;99.90;;;;;;5035653;28;20593;-89
2022/02/25 03:23:02;;;;;;;1.60;1.07;;;5.50;99.90;;;;;;5038316;28;20224;-87
2022/02/25 03:25:28;;;;;;;2.67;1.10;;;5.50;99.90;;;;;;5003270;28;20218;-88
2022/02/25 03:27:55;;;;;;;1.10;1.10;;;5.60;99.90;;;;;;5037816;28;20264;-88
2022/02/25 03:30:21;;;;;;;1.07;0.70;;;5.60;99.90;;;;;;5034969;28;20582;-87
2022/02/25 03:32:47;;;;;;;0.93;0.50;;;5.60;99.90;;;;;;5019319;28;20678;-87
2022/02/25 03:35:14;;;;;;;0.60;0.60;;;5.60;99.90;;;;;;5018314;28;20750;-88
2022/02/25 03:37:41;;;;;;;1.30;1.17;;;5.70;99.90;;;;;;5002711;28;20218;-88
2022/02/25 03:40:08;;;;;;;6.83;1.07;;;5.70;99.90;;;;;;5003462;28;20218;-87
2022/02/25 03:42:34;;;;;;;1.33;0.50;;;5.70;99.90;;;;;;5037053;28;20238;-89
2022/02/25 03:45:04;;;;;;;0.53;0.53;;;5.60;99.90;;;;;;5038487;28;20648;-88
2022/02/25 03:47:32;;;;;;;0.57;0.57;;;5.70;99.90;;;;;;4966260;28;20298;-88
2022/02/25 03:49:58;;;;;;;13.77;1.00;;;5.60;99.90;;;;;;4990899;28;20223;-87
2022/02/25 03:52:24;;;;;;;0.40;0.40;;;5.60;99.90;;;;;;4989482;28;20247;-86
2022/02/25 03:54:50;;;;;;;3.47;0.90;;;5.60;99.90;;;;;;4982021;28;20230;-87
2022/02/25 03:57:16;;;;;;;3.20;1.27;;;5.60;99.90;;;;;;4974709;28;20216;-86
2022/02/25 03:59:41;;;;;;;0.87;0.87;;;5.70;99.90;;;;;;4998602;28;20198;-87
2022/02/25 04:02:07;;;;;;;2.57;1.70;;;5.60;99.90;;;;;;4956890;28;20223;-87
2022/02/25 04:04:33;;;;;;;0.67;0.67;;;5.60;99.90;;;;;;4990829;28;20723;-90
2022/02/25 04:06:58;;;;;;;6.10;1.10;;;5.60;99.90;;;;;;4995230;28;20214;-87
2022/02/25 04:09:24;;;;;;;0.77;0.57;;;5.60;99.90;;;;;;5011708;28;20455;-84
2022/02/25 04:11:52;;;;;;;0.40;0.40;;;5.60;99.90;;;;;;5000048;28;20192;-88
2022/02/25 04:14:19;;;;;;;1.07;1.00;;;5.50;99.90;;;;;;5028964;28;20222;-88
2022/02/25 04:16:46;;;;;;;3.80;0.70;;;5.50;99.90;;;;;;4998813;28;20211;-89
2022/02/25 04:19:11;;;;;;;0.30;0.30;;;5.60;99.90;;;;;;5017668;28;20218;-89
2022/02/25 04:21:37;;;;;;;3.07;0.50;;;5.50;99.90;;;;;;5001050;28;20339;-89
2022/02/25 04:24:04;;;;;;;1.47;0.90;;;5.60;99.90;;;;;;5017735;28;20191;-88
2022/02/25 04:26:30;;;;;;;1.43;0.53;;;5.60;99.90;;;;;;4997244;28;20208;-86
2022/02/25 04:28:56;;;;;;;2.13;0.93;;;5.70;99.90;;;;;;5007313;28;20241;-87
2022/02/25 04:31:22;;;;;;;0.97;0.60;;;5.70;99.90;;;;;;5005267;28;21269;-86
2022/02/25 04:33:47;;;;;;;2.10;1.30;;;5.80;99.90;;;;;;4995312;28;21022;-86
2022/02/25 04:36:14;;;;;;;9.93;1.50;;;5.80;99.90;;;;;;4988962;28;20674;-88
2022/02/25 04:38:40;;;;;;;0.80;0.80;;;5.90;99.90;;;;;;4987983;28;20230;-88
2022/02/25 04:41:06;;;;;;;0.30;0.30;;;5.90;99.90;;;;;;4986911;28;20238;-89
2022/02/25 04:43:32;;;;;;;3.47;0.83;;;5.90;99.90;;;;;;4983462;28;20242;-86
2022/02/25 04:45:59;;;;;;;0.20;0.20;;;6.00;99.90;;;;;;5015040;28;20219;-88
2022/02/25 04:48:26;;;;;;;1.60;0.40;;;6.00;99.90;;;;;;5016819;28;20226;-88
2022/02/25 04:50:53;;;;;;;13.80;1.67;;;6.00;99.90;;;;;;5025479;28;20198;-87
2022/02/25 04:53:19;;;;;;;0.63;0.50;;;6.00;99.90;;;;;;5030645;28;20236;-88
2022/02/25 04:55:46;;;;;;;2.17;0.70;;;5.90;99.90;;;;;;5031623;28;20219;-90
2022/02/25 04:58:15;;;;;;;0.30;0.30;;;5.90;99.90;;;;;;5034145;28;20210;-88
2022/02/25 05:00:41;;;;;;;5.87;1.07;;;5.80;99.90;;;;;;5031276;28;20360;-89
2022/02/25 05:03:08;;;;;;;0.40;0.40;;;5.70;99.90;;;;;;5024224;28;20276;-89
2022/02/25 05:05:34;;;;;;;0.53;0.53;;;5.40;99.90;;;;;;5011234;28;20217;-88
2022/02/25 05:07:59;;;;;;;1.27;1.27;;;5.20;99.90;;;;;;5031523;28;20213;-87
2022/02/25 05:10:30;;;;;;;4.13;2.10;;;5.20;99.90;;;;;;5022475;28;20306;-89
2022/02/25 05:12:56;;;;;;;0.73;0.73;;;5.30;99.90;;;;;;5017599;28;20989;-87
2022/02/25 05:20:50;;;;;;;0.53;0.53;;;5.50;99.90;;;;;;5009371;28;20286;-88
2022/02/25 05:23:16;;;;;;;0.40;0.40;;;5.50;99.90;;;;;;5006394;28;20321;-90
2022/02/25 05:25:43;;;;;;;0.20;0.20;;;5.60;99.90;;;;;;5004298;28;20985;-87
2022/02/25 05:28:09;;;;;;;1.53;0.77;;;5.50;99.90;;;;;;5025046;28;20218;-88
2022/02/25 05:30:35;;;;;;;0.53;0.53;;;5.50;99.90;;;;;;5023467;28;20241;-88
2022/02/25 05:33:01;;;;;;;2.63;0.60;;;5.50;99.90;;;;;;4999915;28;20191;-89
2022/02/25 05:35:27;;;;;;;1.37;1.30;;;5.50;99.90;;;;;;4997546;28;20223;-88
2022/02/25 05:37:53;;;;;;;3.27;1.13;;;5.60;99.90;;;;;;5029091;28;20226;-89
2022/02/25 05:40:20;;;;;;;16.37;1.17;;;5.70;99.90;;;;;;5023369;28;20251;-89
2022/02/25 05:42:47;;;;;;;13.03;1.93;;;5.80;99.90;;;;;;5012546;28;20292;-86
2022/02/25 05:45:15;;;;;;;1.90;0.80;;;5.80;99.90;;;;;;4997480;28;20778;-87
2022/02/25 05:47:41;;;;;;;8.33;2.23;;;5.80;99.90;;;;;;5016443;28;20195;-90
2022/02/25 05:50:12;;;;;;;1.63;1.53;;;5.80;99.90;;;;;;4988021;28;20220;-87
2022/02/25 05:52:38;;;;;;;1.50;1.37;;;5.80;99.90;;;;;;4996446;28;20234;-89
2022/02/25 05:55:05;;;;;;;5.10;0.60;;;5.90;99.90;;;;;;5001130;28;21047;-87
2022/02/25 05:57:30;;;;;;;0.57;0.57;;;5.90;99.90;;;;;;4981389;28;20224;-87
2022/02/25 05:59:56;;;;;;;2.13;1.40;;;5.90;99.90;;;;;;4983939;28;20218;-87
2022/02/25 06:02:22;;;;;;;6.60;2.50;;;5.90;99.90;;;;;;4956400;28;20247;-89
2022/02/25 06:04:48;;;;;;;1.70;1.10;;;5.90;99.90;;;;;;4978889;28;20570;-90
2022/02/25 06:07:14;;;;;;;2.63;1.70;;;5.90;99.90;;;;;;4990199;28;20242;-89
2022/02/25 06:09:39;;;;;;;1.67;1.57;;;5.90;99.90;;;;;;4961623;28;20218;-89
2022/02/25 06:12:05;;;;;;;2.00;1.90;;;5.90;99.90;;;;;;5002050;28;20250;-89
2022/02/25 06:14:31;;;;;;;1.90;1.63;;;6.00;99.90;;;;;;4993455;28;20719;-86
2022/02/25 06:16:57;;;;;;;1.50;1.40;;;6.00;99.90;;;;;;4969258;28;20219;-89
2022/02/25 06:19:23;;;;;;;1.10;0.37;;;6.00;99.90;;;;;;5001483;28;20219;-88
2022/02/25 06:21:49;;;;;;;0.87;0.73;;;6.00;99.90;;;;;;5008926;28;20233;-89
2022/02/25 06:24:15;;;;;;;0.30;0.30;;;6.00;99.90;;;;;;4969718;28;20205;-88
2022/02/25 06:26:40;;;;;;;4.90;2.13;;;6.00;99.90;;;;;;5001076;28;20191;-90
2022/02/25 06:29:07;;;;;;;5.40;1.10;;;6.00;99.90;;;;;;4983118;28;21032;-87
2022/02/25 06:31:33;;;;;;;2.33;1.30;;;6.00;99.90;;;;;;5000713;28;20852;-90
2022/02/25 06:33:59;;;;;;;0.70;0.60;;;6.00;99.90;;;;;;5001607;28;20228;-89
2022/02/25 06:36:24;;;;;;;0.97;0.97;;;6.10;99.90;;;;;;4969507;28;20727;-89
2022/02/25 06:38:50;;;;;;;4.83;1.73;;;6.00;99.90;;;;;;4992946;28;20245;-88
2022/02/25 06:41:17;;;;;;;3.20;0.60;;;6.00;99.90;;;;;;5000473;28;20279;-88
2022/02/25 06:43:43;;;;;;;0.63;0.63;;;6.10;99.90;;;;;;5016247;28;20237;-89
2022/02/25 06:46:11;;;;;;;0.43;0.43;;;6.00;99.90;;;;;;5008155;28;20564;-90
2022/02/25 06:48:38;;;;;;;0.93;0.93;;;5.90;99.90;;;;;;4992860;28;20219;-89
2022/02/25 06:51:04;;;;;;;1.07;0.63;;;5.90;99.90;;;;;;5008118;28;20203;-87
2022/02/25 06:53:30;;;;;;;2.53;0.60;;;5.90;99.90;;;;;;4986875;28;20191;-89
2022/02/25 06:55:57;;;;;;;20.23;1.00;;;5.90;99.90;;;;;;4995358;28;20423;-88
2022/02/25 06:58:23;;;;;;;0.30;0.30;;;5.80;99.90;;;;;;4999932;28;20300;-88
2022/02/25 07:00:49;;;;;;;5.03;1.80;;;5.80;99.90;;;;;;5024291;28;20878;-89
2022/02/25 07:03:14;;;;;;;6.10;1.20;;;5.80;99.90;;;;;;5009603;28;20202;-91
2022/02/25 07:05:40;;;;;;;1.10;0.60;;;5.80;99.90;;;;;;5017397;28;20647;-90
2022/02/25 07:08:07;;;;;;;0.60;0.60;;;5.80;99.90;;;;;;5015913;28;20219;-88
2022/02/25 07:10:35;;;;;;;0.70;0.70;;;5.80;99.90;;;;;;5016503;28;20223;-86
2022/02/25 07:13:02;;;;;;;1.40;0.60;;;5.80;99.90;;;;;;4992610;28;20276;-89
2022/02/25 07:15:29;;;;;;;4.23;0.70;;;5.80;99.90;;;;;;4992276;28;20215;-90
2022/02/25 07:17:55;;;;;;;4.83;0.77;;;5.90;99.90;;;;;;5016586;28;20282;-88
2022/02/25 07:20:21;;;;;;;0.40;0.40;;;5.90;99.90;;;;;;5014809;28;20216;-89
2022/02/25 07:22:47;;;;;;;0.50;0.50;;;6.00;99.90;;;;;;4985571;28;20345;-93
2022/02/25 07:25:16;;;;;;;0.83;0.83;;;6.30;99.90;;;;;;5013896;28;20226;-91
2022/02/25 07:27:42;;;;;;;4.70;1.67;;;6.50;99.90;;;;;;5023186;28;20214;-84
2022/02/25 07:30:09;;;;;;;7.33;1.00;;;6.80;99.90;;;;;;5041757;28;20191;-86
2022/02/25 07:32:35;;;;;;;0.33;0.33;;;7.10;99.90;;;;;;5038022;28;20186;-91
2022/02/25 07:35:02;;;;;;;8.20;3.13;;;7.50;99.90;;;;;;5023493;28;20256;-86
2022/02/25 07:37:28;;;;;;;0.30;0.30;;;7.70;99.90;;;;;;5040336;28;20268;-88
2022/02/25 07:39:54;;;;;;;0.63;0.63;;;8.00;99.90;;;;;;5034307;28;20610;-87
2022/02/25 07:42:20;;;;;;;4.53;0.50;;;8.10;99.90;;;;;;5020880;28;20238;-86
2022/02/25 07:44:46;;;;;;;9.33;1.73;;;8.20;99.90;;;;;;4999122;28;20278;-87
2022/02/25 07:47:11;;;;;;;1.27;1.03;;;8.20;99.90;;;;;;5036302;28;20352;-87
2022/02/25 07:49:37;;;;;;;0.77;0.77;;;7.90;99.90;;;;;;5019842;28;20688;-87
2022/02/25 07:52:03;;;;;;;0.40;0.40;;;7.80;99.90;;;;;;4995974;28;20211;-87
2022/02/25 07:54:31;;;;;;;14.07;0.80;;;8.00;99.90;;;;;;5009301;28;20214;-87
2022/02/25 07:56:57;;;;;;;0.50;0.50;;;8.30;99.90;;;;;;5026056;28;20225;-85
2022/02/25 07:59:23;;;;;;;1.07;0.97;;;8.10;99.90;;;;;;5016888;28;20215;-87
2022/02/25 08:01:49;;;;;;;0.93;0.57;;;7.90;99.90;;;;;;5011319;28;20226;-88
2022/02/25 08:04:15;;;;;;;2.93;0.93;;;7.60;99.90;;;;;;5023923;28;20619;-89
2022/02/25 08:06:42;;;;;;;0.93;0.77;;;7.30;99.90;;;;;;4990391;28;20305;-82
2022/02/25 08:09:11;;;;;;;1.70;0.50;;;7.10;99.90;;;;;;4974193;28;20282;-86
2022/02/25 08:11:37;;;;;;;5.57;0.70;;;6.70;99.90;;;;;;5014161;28;20199;-86
2022/02/25 08:14:03;;;;;;;2.47;0.60;;;5.90;99.90;;;;;;5017275;28;20226;-90
2022/02/25 08:16:28;;;;;;;0.50;0.50;;;5.70;99.90;;;;;;5007779;28;20277;-87
2022/02/25 08:18:54;;;;;;;2.00;0.80;;;5.70;99.90;;;;;;5015752;28;20587;-89
2022/02/25 08:21:20;;;;;;;4.27;1.03;;;5.90;99.90;;;;;;4984178;28;20265;-84
2022/02/25 08:23:46;;;;;;;6.90;3.00;;;5.90;99.90;;;;;;5017711;28;20187;-86
2022/02/25 08:26:12;;;;;;;2.63;0.60;;;5.90;99.90;;;;;;5014787;28;20222;-86
2022/02/25 08:28:37;;;;;;;4.07;2.07;;;6.00;99.90;;;;;;5029160;28;20211;-90
2022/02/25 08:31:04;;;;;;;1.67;1.33;;;6.10;99.90;;;;;;5029548;28;20222;-86
2022/02/25 08:33:30;;;;;;;0.53;0.53;;;6.20;99.90;;;;;;5027521;28;20204;-94
2022/02/25 08:35:56;;;;;;;0.27;0.27;;;6.20;99.90;;;;;;5023963;28;20256;-92
2022/02/25 08:38:22;;;;;;;11.07;1.30;;;6.20;99.90;;;;;;5039467;28;20252;-89
2022/02/25 08:40:48;;;;;;;0.90;0.90;;;6.20;99.90;;;;;;5011414;28;20234;-90
2022/02/25 08:43:14;;;;;;;3.17;1.10;;;6.30;99.90;;;;;;5025045;28;20254;-91
2022/02/25 08:45:41;;;;;;;2.73;2.30;;;6.60;99.90;;;;;;5004045;28;20218;-89
2022/02/25 08:48:08;;;;;;;0.50;0.50;;;7.30;99.90;;;;;;5013486;28;20194;-91
2022/02/25 08:50:34;;;;;;;0.17;0.17;;;8.00;99.90;;;;;;5016034;28;20190;-90
2022/02/25 08:53:00;;;;;;;3.00;1.27;;;8.20;99.90;;;;;;5017474;28;20306;-92
2022/02/25 08:55:29;;;;;;;3.63;1.50;;;8.20;99.90;;;;;;5026182;28;20302;-89
2022/02/25 08:57:54;;;;;;;0.70;0.70;;;8.00;99.90;;;;;;5027148;28;20218;-92
2022/02/25 09:00:23;;;;;;;0.50;0.50;;;7.80;99.90;;;;;;5012137;28;20214;-91
2022/02/25 09:02:50;;;;;;;2.10;0.43;;;7.70;99.90;;;;;;5012863;28;20706;-90
2022/02/25 09:05:17;;;;;;;5.27;1.70;;;7.80;99.90;;;;;;5015047;28;20828;-89
2022/02/25 09:07:44;;;;;;;0.30;0.30;;;7.90;99.90;;;;;;5028284;28;20750;-91
2022/02/25 09:10:12;;;;;;;2.00;1.33;;;7.90;99.90;;;;;;5029663;28;20218;-90
2022/02/25 09:12:39;;;;;;;1.13;1.03;;;8.10;99.90;;;;;;5017082;28;20305;-88
2022/02/25 09:15:11;;;;;;;5.83;1.63;;;8.10;99.90;;;;;;5024223;28;20305;-89
2022/02/25 09:17:38;;;;;;;0.40;0.40;;;8.10;99.90;;;;;;5023489;28;20216;-89
2022/02/25 09:20:06;;;;;;;6.77;1.13;;;7.90;99.90;;;;;;5028864;28;20214;-90
2022/02/25 09:22:32;;;;;;;5.60;2.33;;;8.30;99.90;;;;;;5022201;28;20234;-91
2022/02/25 09:24:57;;;;;;;1.60;1.20;;;8.70;99.90;;;;;;5017035;28;20225;-84
2022/02/25 09:27:24;;;;;;;0.87;0.70;;;8.30;99.90;;;;;;5007254;28;21095;-85
2022/02/25 09:29:50;;;;;;;1.13;0.93;;;8.30;99.90;;;;;;5024715;28;20240;-88
2022/02/25 09:32:15;;;;;;;5.40;0.87;;;8.50;99.90;;;;;;5018247;28;20231;-91
2022/02/25 09:34:41;;;;;;;0.73;0.30;;;8.40;99.90;;;;;;4993079;28;20995;-91
2022/02/25 09:37:07;;;;;;;2.07;1.57;;;8.40;99.90;;;;;;5013815;28;20685;-87
2022/02/25 09:39:33;;;;;;;3.33;1.57;;;8.70;99.90;;;;;;4992629;28;20302;-91
2022/02/25 09:41:59;;;;;;;4.03;0.80;;;8.90;99.90;;;;;;5008005;28;20219;-86
2022/02/25 09:44:26;;;;;;;4.33;1.07;;;9.20;99.90;;;;;;4983342;28;20309;-85
2022/02/25 09:46:51;;;;;;;0.93;0.70;;;9.00;99.90;;;;;;5001013;28;20230;-87
2022/02/25 09:49:18;;;;;;;2.00;1.03;;;8.80;99.90;;;;;;5018067;28;20234;-90
2022/02/25 09:51:48;;;;;;;0.13;0.13;;;8.60;99.90;;;;;;4999420;28;20245;-88
2022/02/25 09:54:16;;;;;;;0.83;0.63;;;8.10;99.90;;;;;;5017472;28;20281;-89
2022/02/25 09:56:43;;;;;;;16.97;3.60;;;7.50;99.90;;;;;;4993469;28;20289;-92
2022/02/25 09:59:10;;;;;;;0.40;0.40;;;7.20;99.90;;;;;;5016702;28;20219;-91
2022/02/25 10:01:36;;;;;;;0.40;0.40;;;7.20;99.90;;;;;;5016521;28;20250;-91
2022/02/25 10:04:16;;;;;;;1.93;0.70;;;7.10;99.90;;;;;;5001636;28;20775;-90
2022/02/25 10:06:43;;;;;;;1.37;0.60;;;7.30;99.90;;;;;;5017558;28;20218;-89
2022/02/25 10:09:27;;;;;;;0.70;0.70;;;7.30;99.90;;;;;;5015201;28;20239;-92
2022/02/25 10:12:07;;;;;;;0.40;0.40;;;6.90;99.90;;;;;;5015090;28;20612;-88
2022/02/25 10:14:34;;;;;;;0.20;0.20;;;6.50;99.90;;;;;;5004540;28;20219;-86
2022/02/25 10:17:25;;;;;;;0.30;0.30;;;6.20;99.90;;;;;;5016091;28;20210;-87
2022/02/25 10:20:00;;;;;;;0.30;0.30;;;6.10;99.90;;;;;;5010205;28;20301;-85
2022/02/25 10:22:38;;;;;;;2.03;0.60;;;6.10;99.90;;;;;;5015690;28;20266;-89
2022/02/25 10:25:09;;;;;;;0.73;0.73;;;6.20;99.90;;;;;;5015326;28;20219;-87
2022/02/25 10:27:38;;;;;;;0.20;0.20;;;6.30;99.90;;;;;;5017067;28;20212;-88
2022/02/25 10:30:16;;;;;;;0.57;0.40;;;6.40;99.90;;;;;;5016465;28;20188;-86
2022/02/25 10:32:50;;;;;;;2.30;1.17;;;6.40;99.90;;;;;;5018423;28;20219;-90
2022/02/25 10:35:29;;;;;;;1.07;0.50;;;6.40;99.90;;;;;;5018774;28;20219;-90
2022/02/25 10:38:08;;;;;;;0.43;0.43;;;6.30;99.90;;;;;;5018097;28;20286;-86
2022/02/25 10:40:39;;;;;;;0.20;0.20;;;6.00;99.90;;;;;;5020291;28;20215;-86
2022/02/25 10:43:20;;;;;;;0.33;0.33;;;6.00;99.90;;;;;;5030088;28;20239;-84
2022/02/25 10:45:48;;;;;;;1.60;0.50;;;6.00;99.90;;;;;;5038472;28;20252;-90
2022/02/25 10:48:16;;;;;;;0.20;0.20;;;6.10;99.90;;;;;;5038136;28;20249;-89
2022/02/25 10:50:58;;;;;;;0.10;0.10;;;6.20;99.90;;;;;;5029279;28;20246;-88
2022/02/25 10:53:27;;;;;;;2.17;0.53;;;6.40;99.90;;;;;;5034590;28;20218;-89
2022/02/25 10:56:06;;;;;;;2.73;0.27;;;6.40;99.90;;;;;;5037923;28;20222;-90
2022/02/25 10:58:42;;;;;;;1.57;1.47;;;6.70;99.90;;;;;;5034899;28;20249;-92
2022/02/25 11:01:08;;;;;;;1.70;0.87;;;6.90;99.90;;;;;;5035669;28;21064;-90
2022/02/25 11:03:35;;;;;;;4.33;0.60;;;7.50;99.90;;;;;;5035445;28;20218;-89
2022/02/25 11:06:05;;;;;;;0.57;0.57;;;7.90;99.90;;;;;;5020173;28;20240;-92
2022/02/25 11:08:31;;;;;;;1.40;1.03;;;8.20;99.90;;;;;;5036048;28;20230;-90
2022/02/25 11:10:58;;;;;;;0.40;0.40;;;8.50;99.90;;;;;;5001987;28;20328;-91
2022/02/25 11:13:25;;;;;;;1.80;0.50;;;8.40;99.90;;;;;;5033199;28;20595;-88
2022/02/25 11:15:53;;;;;;;1.27;0.80;;;8.10;99.90;;;;;;5006174;28;20251;-88
2022/02/25 11:18:21;;;;;;;0.30;0.30;;;8.20;99.90;;;;;;5037040;28;20189;-87
2022/02/25 11:20:50;;;;;;;0.50;0.50;;;8.20;99.90;;;;;;5019341;28;21212;-88
2022/02/25 11:23:16;;;;;;;0.73;0.40;;;8.60;99.90;;;;;;5036325;28;20725;-87
2022/02/25 11:25:44;;;;;;;3.57;2.40;;;9.10;99.90;;;;;;5037821;28;21140;-88
2022/02/25 11:28:11;;;;;;;1.07;0.50;;;9.40;99.90;;;;;;5010694;28;20237;-87
2022/02/25 11:30:48;;;;;;;0.40;0.40;;;9.30;99.90;;;;;;5032638;28;20301;-87
2022/02/25 11:33:21;;;;;;;0.50;0.50;;;9.30;99.90;;;;;;5037021;28;20588;-86
2022/02/25 11:35:56;;;;;;;5.70;0.80;;;9.30;99.90;;;;;;5020450;28;20706;-85
2022/02/25 11:38:42;;;;;;;0.40;0.40;;;9.00;99.90;;;;;;5034927;28;20221;-87
2022/02/25 11:41:14;;;;;;;0.50;0.50;;;8.70;99.90;;;;;;5034372;28;20279;-89
2022/02/25 11:43:48;;;;;;;9.53;0.87;;;8.80;99.90;;;;;;5033726;28;20226;-84
2022/02/25 11:46:29;;;;;;;0.77;0.40;;;8.80;99.90;;;;;;5034430;28;20312;-85
2022/02/25 11:48:57;;;;;;;0.67;0.67;;;8.70;99.90;;;;;;5034726;28;20587;-86
2022/02/25 11:51:36;;;;;;;0.30;0.30;;;9.10;99.90;;;;;;5033686;28;20233;-85
2022/02/25 11:54:20;;;;;;;0.40;0.40;;;9.40;99.90;;;;;;5049952;28;20914;-88
2022/02/25 11:57:10;;;;;;;1.17;1.17;;;9.20;99.90;;;;;;5051573;28;20332;-86
2022/02/25 11:59:36;;;;;;;1.07;0.73;;;9.40;99.90;;;;;;5008529;28;20626;-88
2022/02/25 12:02:13;;;;;;;2.43;1.30;;;9.50;99.90;;;;;;5024630;28;20223;-88
2022/02/25 12:04:44;;;;;;;0.20;0.20;;;9.40;99.90;;;;;;5014584;28;20242;-86
2022/02/25 12:07:28;;;;;;;6.77;1.13;;;9.60;99.90;;;;;;5014166;28;20218;-85
2022/02/25 12:10:10;;;;;;;6.33;0.50;;;9.60;99.90;;;;;;5016198;28;20218;-86
2022/02/25 12:12:37;;;;;;;0.20;0.20;;;9.40;99.90;;;;;;5015236;28;20245;-89
2022/02/25 12:15:05;;;;;;;0.60;0.60;;;9.30;99.90;;;;;;5015369;28;20187;-89
2022/02/25 12:17:41;;;;;;;4.50;0.40;;;9.20;99.90;;;;;;5034038;28;21651;-86
2022/02/25 12:20:19;;;;;;;2.93;2.73;;;9.30;99.90;;;;;;5035710;28;20252;-89
2022/02/25 12:22:54;;;;;;;0.50;0.50;;;9.30;99.90;;;;;;5036217;28;20229;-93
2022/02/25 12:25:42;;;;;;;1.27;0.60;;;9.20;99.90;;;;;;5037014;28;21204;-91
2022/02/25 12:28:23;;;;;;;4.53;0.47;;;9.10;99.90;;;;;;5036073;28;20233;-90
2022/02/25 12:31:08;;;;;;;1.17;0.50;;;9.00;99.90;;;;;;5036675;28;20218;-92
2022/02/25 12:33:52;;;;;;;2.70;0.60;;;9.00;99.90;;;;;;5033945;28;20305;-90
2022/02/25 12:36:40;;;;;;;10.57;1.10;;;9.00;99.90;;;;;;5035689;28;20189;-90
2022/02/25 12:39:24;;;;;;;10.33;0.60;;;9.30;99.90;;;;;;5037165;28;20210;-94
2022/02/25 12:41:58;;;;;;;1.40;0.47;;;9.10;99.90;;;;;;5018346;28;20211;-93
2022/02/25 12:44:27;;;;;;;5.73;1.50;;;9.20;99.90;;;;;;4987202;28;20254;-87
2022/02/25 12:46:57;;;;;;;2.07;1.37;;;9.40;99.90;;;;;;4986094;28;20228;-91
2022/02/25 12:49:25;;;;;;;8.60;1.07;;;9.30;99.90;;;;;;4987168;28;20215;-91
2022/02/25 12:51:55;;;;;;;0.60;0.40;;;9.10;99.90;;;;;;4969966;28;20307;-88
2022/02/25 12:54:23;;;;;;;2.60;1.53;;;8.70;99.90;;;;;;4969478;28;20230;-91
2022/02/25 12:56:57;;;;;;;0.40;0.40;;;8.80;99.90;;;;;;4987316;28;20250;-90
2022/02/25 12:59:38;;;;;;;1.00;0.60;;;8.80;99.90;;;;;;4977068;28;20792;-89
2022/02/25 13:02:18;;;;;;;1.40;0.60;;;8.80;99.90;;;;;;4985494;28;21025;-88
2022/02/25 13:04:52;;;;;;;0.20;0.20;;;8.60;99.90;;;;;;4984199;28;20220;-88
2022/02/25 13:07:21;;;;;;;1.30;0.30;;;8.60;99.90;;;;;;4984542;28;20275;-90